Time;durP1;ratioP1;P1;durP2;ratioP2;P2;SDS_P1;SDS_P2;PMS_P1;PMS_P2;Temp;Humidity;BMP_temperature;BMP_pressure;BME280_temperature;BME280_humidity;BME280_pressure;Samples;Min_cycle;Max_cycle;Signal;HPM_P1;HPM_P2
2021/12/29 00:01:26;;;;;;;15.32;11.10;;;8.80;99.90;;;9.77;100.00;98801.59;5014232;28;20120;-78
2021/12/29 00:03:53;;;;;;;19.13;11.73;;;8.80;99.90;;;9.80;100.00;98803.59;5012904;28;20029;-79
2021/12/29 00:06:20;;;;;;;14.73;10.30;;;8.80;99.90;;;9.73;100.00;98809.16;4996787;28;20030;-79
2021/12/29 00:08:46;;;;;;;15.82;10.80;;;8.80;99.90;;;9.72;100.00;98820.72;5013975;28;20030;-79
2021/12/29 00:11:15;;;;;;;13.55;10.20;;;8.80;99.90;;;9.72;100.00;98807.56;5014482;28;20026;-78
2021/12/29 00:13:44;;;;;;;11.05;9.30;;;8.80;99.90;;;9.68;100.00;98817.91;5014492;28;20041;-79
2021/12/29 00:16:16;;;;;;;13.68;10.63;;;8.80;99.90;;;9.72;100.00;98815.13;5014302;28;20030;-79
2021/12/29 00:18:48;;;;;;;12.23;9.35;;;8.80;99.90;;;9.74;100.00;98819.13;4996505;28;20117;-79
2021/12/29 00:21:14;;;;;;;11.88;10.00;;;8.80;99.90;;;9.68;100.00;98815.13;4999430;28;20539;-82
2021/12/29 00:23:43;;;;;;;14.55;11.02;;;8.80;99.90;;;9.79;100.00;98820.72;5020636;28;20026;-81
2021/12/29 00:26:14;;;;;;;12.20;9.27;;;8.80;99.90;;;9.81;100.00;98824.69;5057956;28;20040;-82
2021/12/29 00:28:40;;;;;;;12.57;9.90;;;8.80;99.90;;;9.77;100.00;98835.03;5066605;28;20049;-79
2021/12/29 00:31:06;;;;;;;15.75;11.05;;;8.80;99.90;;;9.73;100.00;98841.81;5042541;28;20557;-79
2021/12/29 00:33:32;;;;;;;15.63;11.55;;;8.80;99.90;;;9.62;100.00;98849.34;5053908;28;20048;-79
2021/12/29 00:35:58;;;;;;;15.98;11.75;;;8.80;99.90;;;9.69;100.00;98838.22;5053929;28;20503;-79
2021/12/29 00:38:23;;;;;;;14.60;12.75;;;8.70;99.90;;;9.65;100.00;98832.66;5054187;28;20532;-77
2021/12/29 00:40:49;;;;;;;17.45;12.23;;;8.80;99.90;;;9.70;100.00;98846.19;5054619;28;20108;-78
2021/12/29 00:43:16;;;;;;;13.95;11.55;;;8.80;99.90;;;9.71;100.00;98850.56;5053864;28;20490;-79
2021/12/29 00:45:44;;;;;;;18.42;13.13;;;8.80;99.90;;;9.65;100.00;98857.72;5054099;28;20484;-80
2021/12/29 00:48:13;;;;;;;15.95;12.32;;;8.80;99.90;;;9.63;100.00;98865.69;5053900;28;20032;-78
2021/12/29 00:50:40;;;;;;;16.08;13.05;;;8.80;99.90;;;9.54;100.00;98870.81;5053881;28;20036;-79
2021/12/29 00:53:07;;;;;;;15.35;13.18;;;8.70;99.90;;;9.58;100.00;98879.19;5053732;28;20032;-78
2021/12/29 00:55:34;;;;;;;18.92;13.43;;;8.80;99.90;;;9.62;100.00;98891.16;5035939;28;20055;-79
2021/12/29 00:58:07;;;;;;;16.92;12.48;;;8.80;99.90;;;9.63;100.00;98893.56;5053877;28;20120;-79
2021/12/29 01:00:37;;;;;;;18.90;14.57;;;8.70;99.90;;;9.70;100.00;98896.34;5035201;28;20052;-80
2021/12/29 01:03:12;;;;;;;18.73;14.10;;;8.80;99.90;;;9.51;100.00;98908.66;5052088;28;20086;-79
2021/12/29 01:05:39;;;;;;;18.27;14.80;;;8.70;99.90;;;9.63;100.00;98929.81;5054003;28;20036;-79
2021/12/29 01:08:08;;;;;;;21.38;15.52;;;8.80;99.90;;;9.75;100.00;98920.28;5053680;28;20659;-82
2021/12/29 01:10:41;;;;;;;22.85;15.68;;;8.80;99.90;;;9.65;100.00;98933.00;5053567;28;20103;-81
2021/12/29 01:13:11;;;;;;;21.92;15.48;;;8.80;99.90;;;9.65;100.00;98946.94;5052364;28;20032;-80
2021/12/29 01:16:15;;;;;;;23.73;15.80;;;8.80;99.90;;;9.72;100.00;98958.09;5054004;28;20036;-78
2021/12/29 01:18:45;;;;;;;21.35;16.33;;;8.80;99.90;;;9.65;100.00;98960.88;5052445;28;20035;-80
2021/12/29 01:21:11;;;;;;;26.67;16.48;;;8.80;99.90;;;9.70;100.00;98968.84;5053749;28;20033;-80
2021/12/29 01:23:38;;;;;;;20.00;15.32;;;8.80;99.90;;;9.67;100.00;98971.59;5052800;28;20424;-79
2021/12/29 01:26:04;;;;;;;22.50;15.90;;;8.80;99.90;;;9.68;100.00;98971.22;5038978;28;20112;-80
2021/12/29 01:28:30;;;;;;;21.08;16.02;;;8.80;99.90;;;9.61;100.00;98979.56;5033481;28;20077;-78
2021/12/29 01:30:59;;;;;;;24.27;15.88;;;8.70;99.90;;;9.55;100.00;98983.91;5033532;28;20113;-79
2021/12/29 01:33:25;;;;;;;20.02;15.27;;;8.70;99.90;;;9.56;100.00;98993.88;5032235;28;20030;-79
2021/12/29 01:35:51;;;;;;;21.85;16.35;;;8.70;99.90;;;9.57;100.00;99003.81;5033227;28;20428;-79
2021/12/29 01:38:16;;;;;;;19.23;15.18;;;8.70;99.90;;;9.53;100.00;99005.81;5033023;28;20033;-80
2021/12/29 01:40:48;;;;;;;22.75;15.57;;;8.70;99.90;;;9.67;100.00;99014.22;5033566;28;20037;-78
2021/12/29 01:43:15;;;;;;;20.67;16.17;;;8.70;99.90;;;9.63;100.00;99021.78;5033754;28;20116;-79
2021/12/29 01:45:46;;;;;;;20.58;15.15;;;8.70;99.90;;;9.57;100.00;99033.69;5032273;28;20088;-80
2021/12/29 01:48:12;;;;;;;21.52;15.77;;;8.70;99.90;;;9.55;100.00;99034.06;5015136;28;20029;-77
2021/12/29 01:50:40;;;;;;;21.10;15.30;;;8.70;99.90;;;9.64;100.00;99040.09;5032668;28;20026;-79
2021/12/29 01:53:09;;;;;;;20.77;15.38;;;8.70;99.90;;;9.53;100.00;99042.81;5033054;28;20021;-78
2021/12/29 01:55:39;;;;;;;22.38;16.10;;;8.70;99.90;;;9.56;100.00;99057.97;5033843;28;20025;-79
2021/12/29 02:00:38;;;;;;;20.17;15.65;;;8.70;99.90;;;9.68;100.00;99057.63;5093261;22;20553;-81
2021/12/29 02:03:07;;;;;;;22.08;14.57;;;8.70;99.90;;;9.66;100.00;99062.00;5071504;28;20491;-81
2021/12/29 02:05:41;;;;;;;18.20;13.07;;;8.70;99.90;;;9.68;100.00;99074.38;5072705;28;20040;-81
2021/12/29 02:08:09;;;;;;;16.13;11.13;;;8.80;99.90;;;9.59;100.00;99076.72;5071552;28;20090;-80
2021/12/29 02:10:46;;;;;;;18.05;11.68;;;8.70;99.90;;;9.61;100.00;99088.25;5073129;28;20036;-78
2021/12/29 02:13:14;;;;;;;14.98;10.07;;;8.70;99.90;;;9.65;100.00;99086.28;5071785;28;20024;-83
2021/12/29 02:15:41;;;;;;;13.93;10.40;;;8.70;99.90;;;9.81;100.00;99095.16;5071663;28;20067;-82
2021/12/29 02:18:16;;;;;;;15.20;10.43;;;8.70;99.90;;;9.73;100.00;99096.28;5088854;28;20020;-83
2021/12/29 02:20:48;;;;;;;16.20;9.95;;;8.70;99.90;;;9.84;100.00;99096.34;5071327;28;20082;-80
2021/12/29 02:23:25;;;;;;;15.90;9.90;;;8.70;99.90;;;9.89;100.00;99093.16;5072427;28;20408;-82
2021/12/29 02:25:57;;;;;;;12.85;9.88;;;8.70;99.90;;;9.89;100.00;99107.13;5084026;28;20115;-81
2021/12/29 02:28:34;;;;;;;11.93;9.75;;;8.70;99.90;;;9.80;100.00;99103.88;5091546;28;20412;-79
2021/12/29 02:31:03;;;;;;;16.50;10.65;;;8.70;99.90;;;9.88;100.00;99106.34;5093035;28;20028;-80
2021/12/29 02:33:32;;;;;;;14.57;10.43;;;8.70;99.90;;;9.78;100.00;99101.50;5092952;28;20554;-82
2021/12/29 02:35:59;;;;;;;19.10;11.90;;;8.60;99.90;;;9.83;100.00;99101.13;5091638;28;20093;-81
2021/12/29 02:38:43;;;;;;;17.50;12.25;;;8.70;99.90;;;9.88;100.00;99106.34;5092862;28;20024;-81
2021/12/29 02:41:16;;;;;;;19.90;12.25;;;8.60;99.90;;;9.88;100.00;99111.13;5091693;28;20040;-81
2021/12/29 02:43:43;;;;;;;19.80;13.88;;;8.60;99.90;;;9.89;100.00;99118.28;5091404;28;20115;-81
2021/12/29 02:46:16;;;;;;;24.75;13.90;;;8.70;99.90;;;9.93;100.00;99121.88;5091163;28;20031;-81
2021/12/29 02:48:55;;;;;;;19.75;13.57;;;8.70;99.90;;;9.96;100.00;99132.25;5108558;28;20035;-83
2021/12/29 02:51:32;;;;;;;18.65;13.48;;;8.70;99.90;;;9.87;100.00;99131.81;5092880;28;20031;-82
2021/12/29 02:54:04;;;;;;;20.27;13.75;;;8.70;99.90;;;9.82;100.00;99141.38;5091737;28;20036;-82
2021/12/29 02:56:33;;;;;;;17.55;13.32;;;8.70;99.90;;;9.88;100.00;99139.00;5108630;28;20486;-80
2021/12/29 02:58:59;;;;;;;17.25;13.38;;;8.70;99.90;;;9.93;100.00;99146.97;5092811;28;20032;-81
2021/12/29 03:01:27;;;;;;;19.88;13.35;;;8.70;99.90;;;9.89;100.00;99163.69;5091309;28;20028;-81
2021/12/29 03:04:02;;;;;;;16.40;12.88;;;8.60;99.90;;;9.80;100.00;99162.44;5092706;28;20181;-82
2021/12/29 03:06:28;;;;;;;18.50;12.73;;;8.70;99.90;;;9.88;100.00;99169.66;5092668;28;20034;-81
2021/12/29 03:09:08;;;;;;;14.93;12.35;;;8.70;99.90;;;9.94;100.00;99176.47;5095290;28;20016;-80
2021/12/29 03:11:40;;;;;;;16.90;10.82;;;8.70;99.90;;;9.86;100.00;99172.84;5106601;28;20107;-81
2021/12/29 03:14:11;;;;;;;15.82;9.65;;;8.70;99.90;;;9.88;100.00;99178.84;5091683;28;20422;-80
2021/12/29 03:16:38;;;;;;;14.73;10.23;;;8.70;99.90;;;9.91;100.00;99180.84;5093063;28;20471;-80
2021/12/29 03:19:06;;;;;;;14.10;8.52;;;8.70;99.90;;;9.97;100.00;99182.09;5108347;28;20086;-81
2021/12/29 03:21:35;;;;;;;17.92;8.95;;;8.70;99.90;;;9.99;100.00;99184.47;5091012;28;20059;-82
2021/12/29 03:24:06;;;;;;;13.60;8.57;;;8.70;99.90;;;10.01;100.00;99182.09;5090805;28;20131;-80
2021/12/29 03:26:32;;;;;;;11.43;8.75;;;8.80;99.90;;;10.07;100.00;99186.13;5072144;28;20107;-81
2021/12/29 03:29:00;;;;;;;12.35;8.13;;;8.80;99.90;;;10.00;100.00;99186.88;5070770;28;20075;-83
2021/12/29 03:31:30;;;;;;;11.73;7.57;;;8.80;99.90;;;9.90;100.00;99182.03;5070860;28;20032;-82
2021/12/29 03:33:56;;;;;;;10.52;7.95;;;8.70;99.90;;;9.95;100.00;99183.66;5071036;28;20027;-83
2021/12/29 03:36:22;;;;;;;10.93;7.03;;;8.70;99.90;;;9.95;100.00;99187.22;5072097;28;20020;-78
2021/12/29 03:38:49;;;;;;;10.60;6.85;;;8.70;99.90;;;9.89;100.00;99186.00;5070544;28;20029;-82
2021/12/29 03:41:19;;;;;;;8.45;6.22;;;8.70;99.90;;;9.95;100.00;99192.03;5070925;28;20063;-81
2021/12/29 03:43:47;;;;;;;9.98;6.53;;;8.70;99.90;;;9.90;100.00;99195.16;5074907;28;20051;-82
2021/12/29 03:46:15;;;;;;;11.30;7.45;;;8.70;99.90;;;9.86;100.00;99199.91;5074380;28;20055;-81
2021/12/29 03:48:47;;;;;;;13.35;7.80;;;8.70;99.90;;;9.93;100.00;99205.53;5074842;28;20021;-82
2021/12/29 03:51:17;;;;;;;14.00;9.70;;;8.70;99.90;;;9.91;100.00;99210.72;5090931;28;20133;-83
2021/12/29 03:53:43;;;;;;;12.73;9.30;;;8.70;99.90;;;9.93;100.00;99217.50;5073789;28;20025;-80
2021/12/29 03:56:13;;;;;;;14.70;9.95;;;8.60;99.90;;;9.94;100.00;99219.13;5073871;28;20067;-82
2021/12/29 03:58:41;;;;;;;16.98;10.27;;;8.70;99.90;;;10.00;100.00;99225.13;5074266;28;20024;-83
2021/12/29 04:01:12;;;;;;;13.23;9.25;;;8.60;99.90;;;9.96;100.00;99227.09;5074390;28;20029;-81
2021/12/29 04:03:42;;;;;;;16.38;11.07;;;8.70;99.90;;;9.77;100.00;99216.19;5091641;28;20032;-82
2021/12/29 04:06:08;;;;;;;16.10;10.10;;;8.60;99.90;;;9.92;100.00;99232.63;5074239;28;20032;-83
2021/12/29 04:08:34;;;;;;;15.20;10.60;;;8.60;99.90;;;9.88;100.00;99236.59;5075777;28;20062;-83
2021/12/29 04:11:00;;;;;;;15.65;10.35;;;8.60;99.90;;;9.93;100.00;99248.19;5075907;28;20037;-82
2021/12/29 04:13:36;;;;;;;16.55;11.07;;;8.60;99.90;;;9.90;100.00;99256.53;5074012;28;20151;-81
2021/12/29 04:16:05;;;;;;;16.42;11.18;;;8.60;99.90;;;9.94;100.00;99258.16;5075693;28;20024;-83
2021/12/29 04:18:31;;;;;;;17.80;11.63;;;8.60;99.90;;;9.79;100.00;99261.22;5073698;28;20120;-82
2021/12/29 04:21:03;;;;;;;16.63;11.00;;;8.60;99.90;;;9.90;100.00;99267.69;5073667;28;20127;-82
2021/12/29 04:23:35;;;;;;;15.43;10.93;;;8.60;99.90;;;9.85;100.00;99268.84;5074200;28;20028;-81
2021/12/29 04:26:08;;;;;;;13.98;11.10;;;8.60;99.90;;;10.00;100.00;99281.72;5090261;28;20055;-82
2021/12/29 04:28:35;;;;;;;17.10;11.93;;;8.60;99.90;;;9.91;100.00;99286.03;5094224;28;20069;-81
2021/12/29 04:31:07;;;;;;;17.15;11.77;;;8.60;99.90;;;9.95;100.00;99295.22;5093024;28;20024;-82
2021/12/29 04:33:36;;;;;;;19.05;12.88;;;8.60;99.90;;;9.95;100.00;99290.41;5094845;28;20110;-82
2021/12/29 04:36:05;;;;;;;24.00;12.85;;;8.60;99.90;;;9.98;100.00;99292.47;5093977;28;20038;-82
2021/12/29 04:38:31;;;;;;;15.35;10.90;;;8.70;99.90;;;9.85;100.00;99293.16;5095059;28;20055;-82
2021/12/29 04:41:01;;;;;;;20.13;10.82;;;8.60;99.90;;;9.92;100.00;99316.28;5105875;28;20055;-84
2021/12/29 04:43:27;;;;;;;16.40;10.93;;;8.60;99.90;;;9.84;100.00;99314.66;5096729;28;20107;-81
2021/12/29 04:45:54;;;;;;;14.05;10.43;;;8.60;99.90;;;9.89;100.00;99313.47;5095021;28;20067;-81
2021/12/29 04:48:24;;;;;;;16.35;11.40;;;8.60;99.90;;;9.92;100.00;99324.66;5094724;28;20150;-82
2021/12/29 04:51:04;;;;;;;18.90;12.20;;;8.60;99.90;;;9.88;100.00;99335.00;5095848;28;20471;-81
2021/12/29 04:53:32;;;;;;;16.00;11.60;;;8.60;99.90;;;9.81;100.00;99337.72;5094675;28;20055;-82
2021/12/29 04:55:59;;;;;;;20.00;12.73;;;8.60;99.90;;;9.87;100.00;99336.19;5094146;28;20035;-82
2021/12/29 04:58:25;;;;;;;17.48;12.40;;;8.60;99.90;;;9.79;100.00;99337.28;5094219;28;20039;-82
2021/12/29 05:00:52;;;;;;;17.63;13.20;;;8.60;99.90;;;9.83;100.00;99351.28;5111390;28;20032;-82
2021/12/29 05:03:19;;;;;;;16.15;11.30;;;8.60;99.90;;;9.75;100.00;99349.63;5095678;28;20111;-84
2021/12/29 05:05:54;;;;;;;19.73;13.70;;;8.50;99.90;;;9.73;100.00;99344.41;5095225;28;20020;-81
2021/12/29 05:08:26;;;;;;;15.57;11.65;;;8.50;99.90;;;9.75;100.00;99344.84;5095354;28;20024;-82
2021/12/29 05:11:10;;;;;;;16.05;11.55;;;8.50;99.90;;;9.75;100.00;99335.66;5095355;28;20508;-82
2021/12/29 05:13:43;;;;;;;15.52;10.98;;;8.50;99.90;;;9.75;100.00;99336.47;5093343;28;20474;-82
2021/12/29 05:16:10;;;;;;;19.05;12.90;;;8.50;99.90;;;9.77;100.00;99359.19;5093594;28;20109;-81
2021/12/29 05:18:38;;;;;;;21.02;12.95;;;8.50;99.90;;;9.86;100.00;99347.72;5100693;28;20012;-80
2021/12/29 05:21:07;;;;;;;21.85;14.15;;;8.50;99.90;;;9.84;100.00;99364.84;5116254;28;20043;-82
2021/12/29 05:23:33;;;;;;;23.83;16.08;;;8.50;99.90;;;9.89;100.00;99366.47;5116485;28;20016;-79
2021/12/29 05:26:00;;;;;;;17.33;12.57;;;8.50;99.90;;;9.83;100.00;99360.44;5086504;28;20078;-82
2021/12/29 05:28:25;;;;;;;17.88;13.38;;;8.50;99.90;;;9.85;100.00;99371.22;5074465;28;20519;-81
2021/12/29 05:30:58;;;;;;;21.92;14.70;;;8.50;99.90;;;9.80;100.00;99377.94;5074285;28;20035;-82
2021/12/29 05:33:24;;;;;;;15.55;11.35;;;8.40;99.90;;;9.75;100.00;99394.22;5072885;28;20025;-82
2021/12/29 05:35:59;;;;;;;20.17;10.55;;;8.40;99.90;;;9.71;100.00;99405.34;5072342;28;20044;-82
2021/12/29 05:38:25;;;;;;;13.00;8.20;;;8.40;99.90;;;9.75;100.00;99419.31;5074322;28;20078;-81
2021/12/29 05:40:52;;;;;;;12.80;7.78;;;8.40;99.90;;;9.66;100.00;99414.06;5073003;28;20491;-81
2021/12/29 05:43:19;;;;;;;11.35;6.47;;;8.40;99.90;;;9.59;100.00;99422.34;5073084;28;20028;-79
2021/12/29 05:45:45;;;;;;;19.88;9.00;;;8.50;99.90;;;9.64;100.00;99413.63;5072193;28;20126;-80
2021/12/29 05:48:11;;;;;;;12.18;5.97;;;8.50;99.90;;;9.69;100.00;99404.94;5071882;28;20063;-82
2021/12/29 05:50:38;;;;;;;13.80;8.02;;;8.50;99.90;;;9.69;100.00;99415.28;5073484;28;20024;-81
2021/12/29 05:53:04;;;;;;;9.75;6.00;;;8.40;99.90;;;9.58;100.00;99429.09;5072925;28;20035;-80
2021/12/29 05:55:30;;;;;;;9.45;6.20;;;8.40;99.90;;;9.54;100.00;99420.69;5074827;28;20037;-81
2021/12/29 05:57:57;;;;;;;11.63;6.30;;;8.30;99.90;;;9.62;100.00;99429.94;5090756;28;20384;-80
2021/12/29 06:00:26;;;;;;;12.07;6.30;;;8.30;99.90;;;9.54;100.00;99431.03;5073856;28;20479;-83
2021/12/29 06:02:54;;;;;;;8.00;5.57;;;8.30;99.90;;;9.53;100.00;99429.44;5074916;28;20058;-82
2021/12/29 06:05:23;;;;;;;8.73;5.13;;;8.30;99.90;;;9.58;100.00;99428.28;5072548;28;20522;-80
2021/12/29 06:07:49;;;;;;;11.02;5.93;;;8.30;99.90;;;9.61;100.00;99425.53;5073306;28;20032;-81
2021/12/29 06:10:15;;;;;;;10.98;5.47;;;8.30;99.90;;;9.52;100.00;99428.63;5072960;28;20024;-78
2021/12/29 06:12:42;;;;;;;10.70;5.63;;;8.20;99.90;;;9.53;100.00;99435.78;5075190;28;20025;-81
2021/12/29 06:15:17;;;;;;;9.65;6.03;;;8.20;99.90;;;9.47;100.00;99423.38;5091313;28;20036;-81
2021/12/29 06:17:43;;;;;;;9.65;6.45;;;8.20;99.90;;;9.50;100.00;99433.00;5094776;28;20155;-83
2021/12/29 06:20:12;;;;;;;12.30;6.75;;;8.10;99.90;;;9.48;100.00;99444.50;5092782;28;20068;-81
2021/12/29 06:22:42;;;;;;;11.85;6.88;;;8.10;99.90;;;9.47;100.00;99442.09;5092095;28;20028;-83
2021/12/29 06:25:14;;;;;;;11.68;8.00;;;8.10;99.90;;;9.45;100.00;99450.03;5086529;28;20035;-81
2021/12/29 06:27:40;;;;;;;12.98;8.50;;;8.10;99.90;;;9.45;100.00;99448.03;5073017;28;20114;-80
2021/12/29 06:30:13;;;;;;;14.20;9.35;;;8.10;99.90;;;9.46;100.00;99446.88;5072671;28;20108;-81
2021/12/29 06:32:42;;;;;;;16.80;10.05;;;8.10;99.90;;;9.44;100.00;99446.44;5071432;28;20388;-81
2021/12/29 06:35:14;;;;;;;16.77;10.98;;;8.10;99.90;;;9.44;100.00;99457.59;5071939;28;20029;-82
2021/12/29 06:37:44;;;;;;;19.10;12.10;;;8.10;99.90;;;9.41;100.00;99463.09;5071705;28;20089;-81
2021/12/29 06:40:13;;;;;;;24.27;12.63;;;8.10;99.90;;;9.43;100.00;99460.75;5071524;28;20174;-81
2021/12/29 06:42:40;;;;;;;21.45;12.70;;;8.10;99.90;;;9.41;100.00;99466.69;5072822;28;20028;-81
2021/12/29 06:45:07;;;;;;;19.92;13.43;;;8.10;99.90;;;9.42;100.00;99468.31;5071350;28;20043;-81
2021/12/29 06:47:34;;;;;;;19.77;13.88;;;8.10;99.90;;;9.42;100.00;99470.28;5072611;28;20104;-82
2021/12/29 06:50:00;;;;;;;24.80;14.20;;;8.10;99.90;;;9.39;100.00;99474.66;5071744;28;20035;-79
2021/12/29 06:52:26;;;;;;;22.77;13.55;;;8.10;99.90;;;9.43;100.00;99471.91;5072747;28;20028;-82
2021/12/29 06:54:52;;;;;;;23.25;14.40;;;8.10;99.90;;;9.43;100.00;99469.13;5073777;28;20028;-83
2021/12/29 06:57:21;;;;;;;22.83;14.50;;;8.10;99.90;;;9.41;100.00;99482.63;5073562;28;20021;-82
2021/12/29 06:59:47;;;;;;;27.08;14.43;;;8.10;99.90;;;9.36;100.00;99482.97;5072152;28;20399;-85
2021/12/29 07:02:14;;;;;;;23.30;14.05;;;8.10;99.90;;;9.43;100.00;99500.59;5072830;28;20107;-82
2021/12/29 07:04:42;;;;;;;19.15;12.73;;;8.10;99.90;;;9.39;100.00;99504.50;5071025;28;20071;-81
2021/12/29 07:07:08;;;;;;;21.88;13.63;;;8.10;99.90;;;9.47;100.00;99503.41;5072972;28;20044;-81
2021/12/29 07:09:34;;;;;;;19.05;12.02;;;8.10;99.90;;;9.45;100.00;99505.75;5072499;28;20032;-84
2021/12/29 07:12:04;;;;;;;20.10;12.43;;;8.10;99.90;;;9.45;100.00;99512.16;5071378;28;20028;-84
2021/12/29 07:14:33;;;;;;;17.75;12.68;;;8.10;99.90;;;9.45;100.00;99519.69;5071027;28;20032;-83
2021/12/29 07:16:59;;;;;;;17.25;11.77;;;8.10;99.90;;;9.51;100.00;99520.97;5072004;28;20028;-82
2021/12/29 07:19:28;;;;;;;19.55;12.70;;;8.10;99.90;;;9.44;100.00;99526.44;5075605;28;20073;-83
2021/12/29 07:21:53;;;;;;;16.30;10.98;;;8.10;99.90;;;9.46;100.00;99529.69;5077245;28;20028;-80
2021/12/29 07:24:19;;;;;;;23.40;11.30;;;8.10;99.90;;;9.40;100.00;99532.00;5075623;28;20029;-81
2021/12/29 07:26:46;;;;;;;17.80;10.93;;;8.10;99.90;;;9.39;100.00;99533.16;5097370;28;20105;-83
2021/12/29 07:29:12;;;;;;;17.45;10.38;;;8.20;99.90;;;9.43;100.00;99547.16;5095593;28;20063;-80
2021/12/29 07:31:38;;;;;;;17.35;10.95;;;8.10;99.90;;;9.47;100.00;99540.44;5095317;28;20068;-84
2021/12/29 07:34:05;;;;;;;18.63;10.02;;;8.20;99.90;;;9.48;100.00;99535.66;5095339;28;20100;-81
2021/12/29 07:36:37;;;;;;;17.73;10.10;;;8.20;99.90;;;9.49;100.00;99540.88;5096779;28;20033;-82
2021/12/29 07:39:04;;;;;;;18.83;10.60;;;8.20;99.90;;;9.42;100.00;99546.34;5094718;28;20412;-82
2021/12/29 07:41:31;;;;;;;13.93;9.90;;;8.20;99.90;;;9.50;100.00;99539.66;5096239;28;20028;-80
2021/12/29 07:43:58;;;;;;;17.15;10.25;;;8.20;99.90;;;9.46;100.00;99543.63;5095769;28;20390;-83
2021/12/29 07:46:24;;;;;;;17.25;10.35;;;8.20;99.90;;;9.51;100.00;99546.88;5095194;28;20425;-84
2021/12/29 07:48:52;;;;;;;18.45;11.85;;;8.20;99.90;;;9.50;100.00;99544.47;5097529;28;20024;-82
2021/12/29 07:51:18;;;;;;;15.68;9.90;;;8.20;99.90;;;9.56;100.00;99554.09;5098175;28;20279;-83
2021/12/29 07:53:45;;;;;;;17.38;10.90;;;8.30;99.90;;;9.55;100.00;99566.44;5097533;28;20078;-83
2021/12/29 07:56:12;;;;;;;19.73;11.05;;;8.30;99.90;;;9.66;100.00;99570.19;5097626;28;20047;-80
2021/12/29 07:58:41;;;;;;;18.23;12.00;;;8.30;99.90;;;9.68;100.00;99565.00;5097582;28;20038;-82
2021/12/29 08:01:09;;;;;;;18.23;11.82;;;8.40;99.90;;;9.65;100.00;99560.19;5097842;28;20073;-81
2021/12/29 08:03:39;;;;;;;18.88;12.20;;;8.30;99.90;;;9.64;100.00;99557.78;5097391;28;20425;-83
2021/12/29 08:06:08;;;;;;;18.42;12.40;;;8.40;99.90;;;9.68;100.00;99569.78;5099968;28;20052;-82
2021/12/29 08:08:34;;;;;;;20.73;12.73;;;8.30;99.90;;;9.65;100.00;99568.56;5099589;28;20060;-82
2021/12/29 08:11:01;;;;;;;21.63;13.15;;;8.30;99.90;;;9.64;100.00;99564.16;5097562;28;20048;-81
2021/12/29 08:13:27;;;;;;;21.65;14.07;;;8.40;99.90;;;9.70;100.00;99565.44;5097987;28;20020;-82
2021/12/29 08:15:53;;;;;;;24.98;13.95;;;8.40;99.90;;;9.60;100.00;99571.66;5097046;28;20100;-83
2021/12/29 08:18:19;;;;;;;22.55;15.10;;;8.40;99.90;;;9.68;100.00;99581.75;5097688;28;20114;-83
2021/12/29 08:20:48;;;;;;;22.85;14.95;;;8.40;99.90;;;9.67;100.00;99576.53;5097213;28;20031;-81
2021/12/29 08:23:14;;;;;;;20.83;13.55;;;8.40;99.90;;;9.71;100.00;99586.56;5096506;28;20428;-80
2021/12/29 08:25:40;;;;;;;19.55;12.85;;;8.50;99.90;;;9.78;100.00;99589.44;5087066;28;20119;-81
2021/12/29 08:28:06;;;;;;;22.10;14.30;;;8.40;99.90;;;9.77;100.00;99587.84;5076957;28;20021;-79
2021/12/29 08:30:36;;;;;;;18.73;12.82;;;8.40;99.90;;;9.83;100.00;99596.66;5076137;28;20117;-82
2021/12/29 08:33:02;;;;;;;23.05;14.50;;;8.50;99.90;;;9.77;100.00;99595.38;5076001;28;20030;-81
2021/12/29 08:35:28;;;;;;;21.70;15.27;;;8.50;99.90;;;9.79;100.00;99596.63;5076006;28;20130;-81
2021/12/29 08:37:56;;;;;;;24.40;15.52;;;8.50;99.90;;;9.83;100.00;99603.03;5077414;28;20071;-82
2021/12/29 08:40:24;;;;;;;22.08;15.43;;;8.50;99.90;;;9.77;100.00;99599.00;5076240;28;20032;-83
2021/12/29 08:42:50;;;;;;;21.63;14.45;;;8.50;99.90;;;9.78;100.00;99599.78;5076300;28;20047;-82
2021/12/29 08:45:21;;;;;;;23.90;15.10;;;8.50;99.90;;;9.75;100.00;99595.78;5075203;28;20033;-81
2021/12/29 08:47:52;;;;;;;25.60;15.55;;;8.50;99.90;;;9.71;100.00;99591.31;5074749;28;20139;-81
2021/12/29 08:50:20;;;;;;;28.90;15.65;;;8.50;99.90;;;9.75;100.00;99592.19;5077601;28;20021;-83
2021/12/29 08:52:52;;;;;;;25.02;15.05;;;8.50;99.90;;;9.78;100.00;99603.38;5092843;28;20087;-80
2021/12/29 08:55:19;;;;;;;26.67;17.65;;;8.50;99.90;;;9.70;100.00;99603.66;5075919;28;20067;-81
2021/12/29 08:57:45;;;;;;;41.92;19.58;;;8.40;99.90;;;9.74;100.00;99602.53;5077541;28;20411;-82
2021/12/29 09:00:16;;;;;;;27.42;17.42;;;8.40;99.90;;;9.78;100.00;99608.16;5077610;28;20440;-81
2021/12/29 09:02:49;;;;;;;27.42;18.95;;;8.50;99.90;;;9.68;100.00;99606.03;5076791;28;20039;-80
2021/12/29 09:05:18;;;;;;;29.50;18.48;;;8.50;99.90;;;9.71;100.00;99600.50;5076684;28;20111;-80
2021/12/29 09:07:47;;;;;;;33.42;19.55;;;8.40;99.90;;;9.77;100.00;99612.13;5075871;28;20402;-79
2021/12/29 09:10:17;;;;;;;32.17;18.65;;;8.40;99.90;;;9.76;100.00;99605.75;5077827;28;20036;-81
2021/12/29 09:12:44;;;;;;;29.50;19.02;;;8.40;99.90;;;9.70;100.00;99607.25;5076857;28;20020;-82
2021/12/29 09:15:10;;;;;;;32.22;20.02;;;8.40;99.90;;;9.76;100.00;99616.09;5079476;28;20127;-84
2021/12/29 09:17:39;;;;;;;31.00;18.95;;;8.40;99.90;;;9.73;100.00;99620.44;5080556;28;20036;-85
2021/12/29 09:20:13;;;;;;;41.78;21.17;;;8.40;99.90;;;9.69;100.00;99616.00;5081803;28;20556;-81
2021/12/29 09:22:40;;;;;;;35.65;19.92;;;8.40;99.90;;;9.78;100.00;99617.34;5080058;28;20496;-81
2021/12/29 09:25:08;;;;;;;32.55;20.13;;;8.40;99.90;;;9.82;100.00;99617.38;5084204;28;20486;-80
2021/12/29 09:27:35;;;;;;;35.17;21.33;;;8.50;99.90;;;9.79;100.00;99629.28;5097383;28;20024;-81
2021/12/29 09:30:02;;;;;;;36.17;21.85;;;8.50;99.90;;;9.80;100.00;99625.31;5096219;28;20107;-83
2021/12/29 09:32:31;;;;;;;39.30;21.10;;;8.50;99.90;;;9.68;100.00;99622.75;5102430;28;20032;-81
2021/12/29 09:35:00;;;;;;;36.95;21.42;;;8.50;99.90;;;9.89;100.00;99635.00;5117209;28;20031;-80
2021/12/29 09:37:30;;;;;;;35.17;21.35;;;8.60;99.90;;;9.83;100.00;99644.06;5116780;28;20023;-83
2021/12/29 09:39:58;;;;;;;34.10;20.05;;;8.50;99.90;;;9.88;100.00;99652.13;5095779;28;20081;-82
2021/12/29 09:42:24;;;;;;;36.53;21.15;;;8.60;99.90;;;9.86;100.00;99655.28;5094177;28;20050;-81
2021/12/29 09:44:52;;;;;;;33.17;21.23;;;8.50;99.90;;;9.88;100.00;99654.91;5095055;28;20032;-82
2021/12/29 09:47:19;;;;;;;37.13;21.98;;;8.50;99.90;;;9.84;100.00;99651.25;5094286;28;20071;-82
2021/12/29 09:49:45;;;;;;;35.92;22.05;;;8.60;99.90;;;9.89;100.00;99656.50;5093982;28;20024;-81
2021/12/29 09:52:15;;;;;;;35.15;22.35;;;8.60;99.90;;;9.97;100.00;99655.44;5093950;28;20089;-82
2021/12/29 09:54:41;;;;;;;40.33;22.23;;;8.60;99.90;;;10.08;100.00;99659.19;5092921;28;20035;-82
2021/12/29 09:57:10;;;;;;;36.67;22.10;;;8.70;99.90;;;10.07;100.00;99658.38;5093942;28;20064;-83
2021/12/29 09:59:36;;;;;;;35.65;22.17;;;8.70;99.90;;;10.14;100.00;99663.28;5092973;28;20075;-82
2021/12/29 10:02:04;;;;;;;38.00;22.10;;;8.70;99.90;;;10.13;100.00;99658.03;5093349;28;20028;-81
2021/12/29 10:04:34;;;;;;;43.78;24.77;;;8.80;99.90;;;10.09;100.00;99657.97;5094327;28;20332;-80
2021/12/29 10:07:20;;;;;;;38.38;22.67;;;8.80;99.90;;;10.18;100.00;99652.16;5094377;28;20027;-83
2021/12/29 10:09:47;;;;;;;39.72;23.38;;;8.80;99.90;;;10.20;100.00;99656.19;5091915;28;20630;-81
2021/12/29 10:12:20;;;;;;;35.22;20.73;;;8.80;99.90;;;10.20;100.00;99647.00;5094140;28;20048;-80
2021/12/29 10:14:59;;;;;;;36.80;22.25;;;8.90;99.90;;;10.30;100.00;99651.91;5093961;28;20560;-82
2021/12/29 10:17:29;;;;;;;37.22;22.35;;;8.90;99.90;;;10.27;100.00;99649.88;5095979;28;20032;-78
2021/12/29 10:20:17;;;;;;;41.15;23.02;;;8.90;99.90;;;10.31;100.00;99656.28;5096715;28;20119;-79
2021/12/29 10:22:59;;;;;;;33.22;21.50;;;8.90;99.90;;;10.30;100.00;99649.94;5094815;28;20035;-79